Time;durP1;ratioP1;P1;durP2;ratioP2;P2;SDS_P1;SDS_P2;PMS_P1;PMS_P2;Temp;Humidity;BMP_temperature;BMP_pressure;BME280_temperature;BME280_humidity;BME280_pressure;Samples;Min_cycle;Max_cycle;Signal;HPM_P1;HPM_P2
2023/02/04 00:00:10;;;;;;;;;6.25;6.25;;;;;;;;5094821;28;10015;-81
2023/02/04 00:02:39;;;;;;;;;7.50;7.50;;;;;;;;5096484;28;9863;-81
2023/02/04 00:05:08;;;;;;;;;9.00;7.00;;;;;;;;5077154;28;10069;-82
2023/02/04 00:07:37;;;;;;;;;5.50;5.50;;;;;;;;5094105;27;10205;-81
2023/02/04 00:10:06;;;;;;;;;8.00;8.00;;;;;;;;5095771;27;10275;-82
2023/02/04 00:12:33;;;;;;;;;8.00;8.00;;;;;;;;5084725;28;10137;-81
2023/02/04 00:15:03;;;;;;;;;7.00;7.00;;;;;;;;5102342;28;10055;-81
2023/02/04 00:17:30;;;;;;;;;6.75;6.25;;;;;;;;5078738;28;10212;-81
2023/02/04 00:20:00;;;;;;;;;8.50;6.75;;;;;;;;5082779;28;10228;-81
2023/02/04 00:22:29;;;;;;;;;7.00;7.00;;;;;;;;5097645;28;10191;-81
2023/02/04 00:24:57;;;;;;;;;5.00;5.00;;;;;;;;5097862;28;10177;-81
2023/02/04 00:27:24;;;;;;;;;9.00;9.00;;;;;;;;5080375;28;10294;-81
2023/02/04 00:29:51;;;;;;;;;9.75;8.00;;;;;;;;5107900;27;10263;-81
2023/02/04 00:32:19;;;;;;;;;4.75;4.75;;;;;;;;5096641;27;10267;-81
2023/02/04 00:34:46;;;;;;;;;0.00;0.00;;;;;;;;5078778;27;10138;-81
2023/02/04 00:37:15;;;;;;;;;9.75;9.00;;;;;;;;5111994;27;10300;-82
2023/02/04 00:39:43;;;;;;;;;9.00;7.00;;;;;;;;5112188;27;10379;-82
2023/02/04 00:42:10;;;;;;;;;7.75;7.75;;;;;;;;5097211;27;10311;-82
2023/02/04 00:44:38;;;;;;;;;7.00;7.00;;;;;;;;5099539;27;10125;-82
2023/02/04 00:47:06;;;;;;;;;5.50;5.50;;;;;;;;5083576;28;11374;-82
2023/02/04 00:49:34;;;;;;;;;7.50;7.00;;;;;;;;5080612;28;10329;-81
2023/02/04 00:52:02;;;;;;;;;7.25;7.25;;;;;;;;5097716;27;10262;-81
2023/02/04 00:54:31;;;;;;;;;9.75;9.75;;;;;;;;5080009;28;10200;-81
2023/02/04 00:56:58;;;;;;;;;4.00;4.00;;;;;;;;5085399;28;10220;-81
2023/02/04 00:59:26;;;;;;;;;10.25;8.00;;;;;;;;5095833;27;10294;-81
2023/02/04 01:01:54;;;;;;;;;6.50;5.00;;;;;;;;5097564;27;10352;-81
2023/02/04 01:04:22;;;;;;;;;5.00;5.00;;;;;;;;5096719;27;10208;-82
2023/02/04 01:06:49;;;;;;;;;10.25;9.50;;;;;;;;5074619;28;10287;-80
2023/02/04 01:09:17;;;;;;;;;9.25;9.25;;;;;;;;5084902;28;10236;-82
2023/02/04 01:11:45;;;;;;;;;9.50;8.00;;;;;;;;5079023;28;10290;-80
2023/02/04 01:14:13;;;;;;;;;8.25;8.00;;;;;;;;5099028;28;10281;-81
2023/02/04 01:16:41;;;;;;;;;10.50;9.50;;;;;;;;5099287;28;10364;-82
2023/02/04 01:19:08;;;;;;;;;3.75;3.25;;;;;;;;5076795;28;10298;-82
2023/02/04 01:21:36;;;;;;;;;9.50;8.50;;;;;;;;5093418;28;10222;-81
2023/02/04 01:24:03;;;;;;;;;8.00;8.00;;;;;;;;5100522;28;10326;-82
2023/02/04 01:26:31;;;;;;;;;12.00;10.00;;;;;;;;5077600;28;10429;-81
2023/02/04 01:29:00;;;;;;;;;12.00;9.25;;;;;;;;5098044;28;11197;-81
2023/02/04 01:31:30;;;;;;;;;11.50;10.25;;;;;;;;5098271;27;10397;-82
2023/02/04 01:33:58;;;;;;;;;11.00;9.25;;;;;;;;5077086;28;10372;-82
2023/02/04 01:36:26;;;;;;;;;8.75;8.25;;;;;;;;5091297;28;10508;-81
2023/02/04 01:38:53;;;;;;;;;6.50;5.75;;;;;;;;5099636;28;11177;-82
2023/02/04 01:41:22;;;;;;;;;11.00;11.00;;;;;;;;5097022;28;11344;-82
2023/02/04 01:43:49;;;;;;;;;9.75;8.25;;;;;;;;5092457;28;10469;-82
2023/02/04 01:46:19;;;;;;;;;8.00;8.00;;;;;;;;5094934;28;10417;-81
2023/02/04 01:48:48;;;;;;;;;12.00;12.00;;;;;;;;5060381;28;10496;-81
2023/02/04 01:51:27;;;;;;;;;10.75;10.75;;;;;;;;5094170;28;10609;-82
2023/02/04 01:53:55;;;;;;;;;10.50;9.75;;;;;;;;5091363;28;10511;-81
2023/02/04 01:56:26;;;;;;;;;10.00;10.00;;;;;;;;5092903;28;10566;-81
2023/02/04 01:58:54;;;;;;;;;12.50;10.50;;;;;;;;5093123;28;10505;-82
2023/02/04 02:01:39;;;;;;;;;14.25;8.25;;;;;;;;5113000;27;10394;-81
2023/02/04 02:04:07;;;;;;;;;9.50;9.00;;;;;;;;5096057;28;10503;-81
2023/02/04 02:06:34;;;;;;;;;13.75;10.00;;;;;;;;5092307;28;10662;-82
2023/02/04 02:09:03;;;;;;;;;11.00;11.00;;;;;;;;5097240;28;10913;-82
2023/02/04 02:11:31;;;;;;;;;13.50;11.75;;;;;;;;5074320;28;10585;-82
2023/02/04 02:13:58;;;;;;;;;11.00;9.25;;;;;;;;5099098;28;10692;-82
2023/02/04 02:16:26;;;;;;;;;12.50;10.75;;;;;;;;5094961;28;10516;-83
2023/02/04 02:18:56;;;;;;;;;7.75;7.75;;;;;;;;5091106;28;10537;-81
2023/02/04 02:21:30;;;;;;;;;13.00;11.50;;;;;;;;5061669;27;10415;-81
2023/02/04 02:24:01;;;;;;;;;15.50;11.75;;;;;;;;5093231;28;10547;-81
2023/02/04 02:26:28;;;;;;;;;9.75;9.75;;;;;;;;5091751;27;10451;-81
2023/02/04 02:28:56;;;;;;;;;9.50;9.50;;;;;;;;5114044;27;10460;-82
2023/02/04 02:31:25;;;;;;;;;10.25;9.25;;;;;;;;5097077;27;10319;-81
2023/02/04 02:33:52;;;;;;;;;8.50;8.50;;;;;;;;5095888;27;10534;-82
2023/02/04 02:36:21;;;;;;;;;8.00;8.00;;;;;;;;5084783;28;10474;-81
2023/02/04 02:38:49;;;;;;;;;7.25;7.25;;;;;;;;5079193;28;10481;-81
2023/02/04 02:41:19;;;;;;;;;11.25;11.25;;;;;;;;5083075;28;10457;-81
2023/02/04 02:43:47;;;;;;;;;12.50;9.00;;;;;;;;5084934;28;10859;-82
2023/02/04 02:46:14;;;;;;;;;7.75;7.75;;;;;;;;5100742;28;10450;-81
2023/02/04 02:48:42;;;;;;;;;12.75;9.50;;;;;;;;5098176;27;10444;-82
2023/02/04 02:51:10;;;;;;;;;10.75;9.75;;;;;;;;5103704;27;10608;-82
2023/02/04 02:53:37;;;;;;;;;11.75;7.75;;;;;;;;5094147;28;10597;-82
2023/02/04 02:56:05;;;;;;;;;9.00;9.00;;;;;;;;5080565;28;10632;-81
2023/02/04 02:58:36;;;;;;;;;11.75;9.75;;;;;;;;5079716;28;10443;-81
2023/02/04 03:01:06;;;;;;;;;15.00;9.25;;;;;;;;5091790;28;10509;-81
2023/02/04 03:03:35;;;;;;;;;9.00;9.00;;;;;;;;5100054;27;10608;-82
2023/02/04 03:06:07;;;;;;;;;11.75;11.75;;;;;;;;5095702;28;11237;-82
2023/02/04 03:08:35;;;;;;;;;9.00;9.00;;;;;;;;5113847;27;10687;-82
2023/02/04 03:11:03;;;;;;;;;9.25;7.75;;;;;;;;5061382;28;10529;-82
2023/02/04 03:13:30;;;;;;;;;10.00;8.50;;;;;;;;5096792;27;10498;-82
2023/02/04 03:16:00;;;;;;;;;11.75;9.00;;;;;;;;5099129;28;10431;-82
2023/02/04 03:18:28;;;;;;;;;9.75;9.50;;;;;;;;5080118;28;10538;-82
2023/02/04 03:20:55;;;;;;;;;10.00;7.50;;;;;;;;5094416;28;10673;-82
2023/02/04 03:23:23;;;;;;;;;10.50;10.50;;;;;;;;5097271;27;10489;-81
2023/02/04 03:25:50;;;;;;;;;11.00;9.00;;;;;;;;5085917;27;10453;-82
2023/02/04 03:28:18;;;;;;;;;7.75;6.75;;;;;;;;5074785;28;10534;-81
2023/02/04 03:30:55;;;;;;;;;9.00;7.50;;;;;;;;5094805;27;10384;-82
2023/02/04 03:33:26;;;;;;;;;11.50;9.75;;;;;;;;5099651;28;10445;-81
2023/02/04 03:35:54;;;;;;;;;11.50;9.00;;;;;;;;5082431;28;10575;-81
2023/02/04 03:38:22;;;;;;;;;10.50;8.75;;;;;;;;5080657;28;10440;-81
2023/02/04 03:40:50;;;;;;;;;12.00;8.75;;;;;;;;5079800;28;10455;-81
2023/02/04 03:43:18;;;;;;;;;9.75;8.25;;;;;;;;5094931;28;10379;-81
2023/02/04 03:45:45;;;;;;;;;9.00;9.00;;;;;;;;5091679;28;10423;-82
2023/02/04 03:48:13;;;;;;;;;8.50;8.00;;;;;;;;5099075;27;10500;-81
2023/02/04 03:50:42;;;;;;;;;10.00;8.75;;;;;;;;5097354;28;10498;-82
2023/02/04 03:53:10;;;;;;;;;9.00;8.00;;;;;;;;5096826;28;10612;-83
2023/02/04 03:55:38;;;;;;;;;8.50;8.25;;;;;;;;5083821;28;10493;-83
2023/02/04 03:58:06;;;;;;;;;11.75;8.50;;;;;;;;5075245;27;11195;-81
2023/02/04 04:00:34;;;;;;;;;7.75;7.75;;;;;;;;5079078;28;10540;-81
2023/02/04 04:03:03;;;;;;;;;10.75;7.25;;;;;;;;5080365;27;10513;-81
2023/02/04 04:05:31;;;;;;;;;7.25;7.25;;;;;;;;5080371;28;10510;-81
2023/02/04 04:08:00;;;;;;;;;7.00;7.00;;;;;;;;5081673;27;10458;-82
2023/02/04 04:10:28;;;;;;;;;14.00;9.00;;;;;;;;5078268;28;10384;-81
2023/02/04 04:12:56;;;;;;;;;10.50;7.75;;;;;;;;5099112;28;10498;-81
2023/02/04 04:15:25;;;;;;;;;10.00;8.00;;;;;;;;5077575;28;10352;-81
2023/02/04 04:17:53;;;;;;;;;9.00;7.50;;;;;;;;5096333;28;10385;-82
2023/02/04 04:20:24;;;;;;;;;7.00;7.00;;;;;;;;5051684;28;1311606;-81
2023/02/04 04:22:51;;;;;;;;;9.50;6.00;;;;;;;;5104775;28;10419;-81
2023/02/04 04:25:20;;;;;;;;;8.00;6.50;;;;;;;;5102561;28;10374;-82
2023/02/04 04:27:48;;;;;;;;;6.00;5.00;;;;;;;;5096450;28;10364;-81
2023/02/04 04:30:16;;;;;;;;;8.50;6.75;;;;;;;;5079563;27;10285;-81
2023/02/04 04:32:43;;;;;;;;;3.00;3.00;;;;;;;;5081835;28;10311;-81
2023/02/04 04:35:10;;;;;;;;;9.75;6.75;;;;;;;;5099460;28;10279;-82
2023/02/04 04:37:38;;;;;;;;;5.00;5.00;;;;;;;;5099161;28;10485;-82
2023/02/04 04:40:06;;;;;;;;;5.00;5.00;;;;;;;;5101302;28;10356;-82
2023/02/04 04:42:35;;;;;;;;;5.00;5.00;;;;;;;;5096506;28;10342;-83
2023/02/04 04:45:04;;;;;;;;;4.50;4.25;;;;;;;;5083307;28;10298;-82
2023/02/04 04:47:32;;;;;;;;;8.00;8.00;;;;;;;;5094673;27;10274;-84
2023/02/04 04:49:59;;;;;;;;;7.00;7.00;;;;;;;;5098884;27;10538;-82
2023/02/04 04:52:26;;;;;;;;;10.00;8.25;;;;;;;;5096371;27;10439;-81
2023/02/04 04:54:54;;;;;;;;;13.50;9.00;;;;;;;;5082424;28;10687;-82
2023/02/04 04:57:22;;;;;;;;;9.75;7.75;;;;;;;;5096862;27;10700;-83
2023/02/04 04:59:51;;;;;;;;;7.75;7.75;;;;;;;;5081664;27;10618;-82
2023/02/04 05:02:18;;;;;;;;;8.00;8.00;;;;;;;;5081634;28;10484;-82
2023/02/04 05:04:46;;;;;;;;;7.00;7.00;;;;;;;;5094840;27;10434;-81
2023/02/04 05:07:13;;;;;;;;;7.25;7.00;;;;;;;;5081053;28;10514;-83
2023/02/04 05:09:41;;;;;;;;;6.00;6.00;;;;;;;;5080214;28;10540;-83
2023/02/04 05:12:08;;;;;;;;;7.75;6.50;;;;;;;;5082021;28;10419;-82
2023/02/04 05:14:36;;;;;;;;;7.50;4.75;;;;;;;;5097654;28;10435;-83
2023/02/04 05:17:05;;;;;;;;;9.00;9.00;;;;;;;;5078281;28;10357;-82
2023/02/04 05:19:33;;;;;;;;;7.00;7.00;;;;;;;;5096711;28;11066;-82
2023/02/04 05:22:01;;;;;;;;;11.25;10.00;;;;;;;;5098620;28;11149;-83
2023/02/04 05:24:29;;;;;;;;;8.00;8.00;;;;;;;;5100477;28;10470;-82
2023/02/04 05:26:59;;;;;;;;;10.50;7.00;;;;;;;;5099041;28;10398;-82
2023/02/04 05:29:26;;;;;;;;;8.00;8.00;;;;;;;;5079750;28;10475;-82
2023/02/04 05:31:54;;;;;;;;;7.75;5.00;;;;;;;;5077817;28;10399;-83
2023/02/04 05:34:24;;;;;;;;;6.50;6.50;;;;;;;;5095993;28;10488;-82
2023/02/04 05:36:52;;;;;;;;;5.00;5.00;;;;;;;;5077213;28;10610;-82
2023/02/04 05:39:20;;;;;;;;;5.00;5.00;;;;;;;;5097756;28;10440;-82
2023/02/04 05:41:47;;;;;;;;;6.75;5.50;;;;;;;;5085774;28;10426;-82
2023/02/04 05:44:15;;;;;;;;;6.75;6.50;;;;;;;;5096691;28;10364;-83
2023/02/04 05:46:42;;;;;;;;;6.00;4.00;;;;;;;;5080005;28;11233;-83
2023/02/04 05:49:10;;;;;;;;;7.50;4.75;;;;;;;;5097286;28;11174;-83
2023/02/04 05:51:39;;;;;;;;;5.00;4.00;;;;;;;;5096904;27;10461;-83
2023/02/04 05:54:07;;;;;;;;;4.75;4.75;;;;;;;;5082759;28;10457;-82
2023/02/04 05:56:34;;;;;;;;;5.00;5.00;;;;;;;;5096476;27;10220;-82
2023/02/04 05:59:02;;;;;;;;;5.00;5.00;;;;;;;;5083034;28;10098;-82
2023/02/04 06:01:30;;;;;;;;;4.50;4.50;;;;;;;;5079923;28;10234;-84
2023/02/04 06:03:58;;;;;;;;;6.00;6.00;;;;;;;;5099171;27;10158;-82
2023/02/04 06:06:26;;;;;;;;;7.25;7.25;;;;;;;;5064969;28;10148;-82
2023/02/04 06:08:55;;;;;;;;;4.00;4.00;;;;;;;;5078163;28;10136;-81
2023/02/04 06:11:22;;;;;;;;;5.00;3.00;;;;;;;;5075794;28;10119;-82
2023/02/04 06:13:50;;;;;;;;;3.00;3.00;;;;;;;;5099246;28;10214;-82
2023/02/04 06:16:18;;;;;;;;;7.00;4.25;;;;;;;;5096152;28;10260;-82
2023/02/04 06:18:46;;;;;;;;;4.50;4.00;;;;;;;;5097339;28;10999;-82
2023/02/04 06:21:13;;;;;;;;;4.00;4.00;;;;;;;;5078665;28;10162;-82
2023/02/04 06:23:41;;;;;;;;;5.00;5.00;;;;;;;;5079055;28;10080;-82
2023/02/04 06:26:10;;;;;;;;;6.50;5.00;;;;;;;;5096544;28;10098;-83
2023/02/04 06:28:40;;;;;;;;;3.00;3.00;;;;;;;;5081335;28;10078;-82
2023/02/04 06:31:08;;;;;;;;;4.50;4.25;;;;;;;;5095208;28;10107;-83
2023/02/04 06:33:36;;;;;;;;;3.25;3.25;;;;;;;;5076107;28;10147;-83
2023/02/04 06:36:03;;;;;;;;;8.25;5.25;;;;;;;;5081309;28;10133;-83
2023/02/04 06:38:31;;;;;;;;;3.00;3.00;;;;;;;;5095715;28;10091;-83
2023/02/04 06:40:59;;;;;;;;;8.00;5.00;;;;;;;;5095035;28;10101;-82
2023/02/04 06:43:28;;;;;;;;;4.50;4.50;;;;;;;;5094893;28;10028;-82
2023/02/04 06:45:55;;;;;;;;;10.00;7.00;;;;;;;;5099890;28;10548;-83
2023/02/04 06:48:23;;;;;;;;;9.00;7.50;;;;;;;;5097997;28;10051;-83
2023/02/04 06:50:50;;;;;;;;;7.00;5.00;;;;;;;;5099021;28;10105;-81
2023/02/04 06:53:18;;;;;;;;;5.50;5.50;;;;;;;;5096399;28;10235;-82
2023/02/04 06:55:45;;;;;;;;;4.00;4.00;;;;;;;;5096768;28;10198;-81
2023/02/04 06:58:12;;;;;;;;;4.25;2.75;;;;;;;;5099502;28;10043;-82
2023/02/04 07:00:41;;;;;;;;;5.25;5.25;;;;;;;;5073989;28;9967;-82
2023/02/04 07:03:09;;;;;;;;;4.00;4.00;;;;;;;;5094538;28;10173;-82
2023/02/04 07:05:36;;;;;;;;;7.00;6.00;;;;;;;;5097330;28;9936;-81
2023/02/04 07:08:06;;;;;;;;;7.25;7.25;;;;;;;;5078940;28;10135;-83
2023/02/04 07:10:33;;;;;;;;;2.00;2.00;;;;;;;;5075105;28;10310;-81
2023/02/04 07:13:01;;;;;;;;;13.50;7.00;;;;;;;;5079153;28;10199;-85
2023/02/04 07:15:28;;;;;;;;;9.25;7.50;;;;;;;;5101099;28;10209;-72
2023/02/04 07:17:57;;;;;;;;;6.50;6.50;;;;;;;;5107399;27;10276;-71
2023/02/04 07:20:24;;;;;;;;;9.25;7.75;;;;;;;;5085382;28;10372;-72
2023/02/04 07:22:52;;;;;;;;;7.75;7.75;;;;;;;;5104375;28;10192;-72
2023/02/04 07:25:19;;;;;;;;;10.75;7.50;;;;;;;;5100652;28;10433;-72
2023/02/04 07:27:47;;;;;;;;;8.00;8.00;;;;;;;;5101765;28;10290;-71
2023/02/04 07:30:15;;;;;;;;;7.00;7.00;;;;;;;;5096719;28;10439;-72
2023/02/04 07:32:42;;;;;;;;;8.75;7.25;;;;;;;;5080758;28;10286;-71
2023/02/04 07:35:14;;;;;;;;;9.00;9.00;;;;;;;;5082464;28;10140;-72
2023/02/04 07:37:41;;;;;;;;;5.50;5.50;;;;;;;;5084406;28;10300;-72
2023/02/04 07:40:10;;;;;;;;;8.75;8.75;;;;;;;;5085573;28;10414;-72
2023/02/04 07:42:38;;;;;;;;;11.00;9.25;;;;;;;;5097130;28;10436;-71
2023/02/04 07:45:06;;;;;;;;;8.25;8.25;;;;;;;;5098186;28;10444;-71
2023/02/04 07:47:33;;;;;;;;;10.75;10.75;;;;;;;;5101368;28;10475;-71
2023/02/04 07:50:00;;;;;;;;;11.50;9.75;;;;;;;;5097264;28;10514;-71
2023/02/04 07:52:29;;;;;;;;;15.50;14.25;;;;;;;;5101181;28;10493;-71
2023/02/04 07:54:57;;;;;;;;;10.75;10.75;;;;;;;;5096529;28;10550;-71
2023/02/04 07:57:24;;;;;;;;;11.50;8.50;;;;;;;;5096249;27;10518;-71
2023/02/04 07:59:51;;;;;;;;;8.75;8.75;;;;;;;;5099727;27;10465;-71
2023/02/04 08:02:19;;;;;;;;;9.00;9.00;;;;;;;;5096965;27;10295;-71
2023/02/04 08:04:46;;;;;;;;;9.50;9.50;;;;;;;;5095257;27;10290;-70
2023/02/04 08:07:13;;;;;;;;;10.00;8.50;;;;;;;;5076305;27;10444;-73
2023/02/04 08:09:42;;;;;;;;;7.00;4.00;;;;;;;;5096384;27;10417;-70
2023/02/04 08:12:10;;;;;;;;;9.25;9.00;;;;;;;;5097688;27;10263;-71
2023/02/04 08:14:37;;;;;;;;;14.00;11.00;;;;;;;;5096994;27;10485;-73
2023/02/04 08:17:05;;;;;;;;;14.25;11.50;;;;;;;;5097093;28;10446;-74
2023/02/04 08:19:32;;;;;;;;;14.00;10.75;;;;;;;;5083158;28;10446;-73
2023/02/04 08:22:00;;;;;;;;;18.75;15.50;;;;;;;;5062949;27;10375;-74
2023/02/04 08:24:27;;;;;;;;;16.25;12.25;;;;;;;;5101016;28;10571;-74
2023/02/04 08:26:57;;;;;;;;;14.00;11.25;;;;;;;;5098221;28;10376;-73
2023/02/04 08:29:25;;;;;;;;;14.00;14.00;;;;;;;;5079149;28;10540;-72
2023/02/04 08:31:58;;;;;;;;;9.00;8.75;;;;;;;;5096979;27;10630;-71
2023/02/04 08:34:25;;;;;;;;;12.00;9.75;;;;;;;;5092735;27;10471;-70
2023/02/04 08:36:53;;;;;;;;;8.00;8.00;;;;;;;;5092010;28;10379;-70
2023/02/04 08:39:20;;;;;;;;;14.50;10.25;;;;;;;;5078006;28;10406;-70
2023/02/04 08:41:48;;;;;;;;;14.75;12.00;;;;;;;;5095697;27;10128;-70
2023/02/04 08:44:16;;;;;;;;;14.00;12.50;;;;;;;;5095581;27;10172;-70
2023/02/04 08:46:44;;;;;;;;;13.50;11.25;;;;;;;;5077329;28;10178;-70
2023/02/04 08:49:11;;;;;;;;;21.00;21.00;;;;;;;;5080593;28;10176;-71
2023/02/04 08:51:39;;;;;;;;;16.00;14.50;;;;;;;;5098396;27;10384;-71
2023/02/04 08:54:06;;;;;;;;;14.25;12.50;;;;;;;;5097331;27;10127;-71
2023/02/04 08:56:34;;;;;;;;;14.25;14.25;;;;;;;;5096376;27;10222;-71
2023/02/04 08:59:02;;;;;;;;;17.00;15.25;;;;;;;;5096621;28;9952;-71
2023/02/04 09:01:31;;;;;;;;;11.00;11.00;;;;;;;;5079423;28;10107;-70
2023/02/04 09:03:59;;;;;;;;;15.25;15.25;;;;;;;;5079645;28;10078;-72
2023/02/04 09:06:26;;;;;;;;;12.25;10.00;;;;;;;;5078406;27;9971;-71
2023/02/04 09:08:54;;;;;;;;;10.75;10.75;;;;;;;;5100172;28;9919;-70
2023/02/04 09:11:21;;;;;;;;;17.00;15.00;;;;;;;;5097989;28;9900;-70
2023/02/04 09:13:49;;;;;;;;;12.00;12.00;;;;;;;;5099549;28;9894;-71
2023/02/04 09:16:17;;;;;;;;;12.00;12.00;;;;;;;;5096577;28;9993;-71
2023/02/04 09:18:46;;;;;;;;;14.50;13.25;;;;;;;;5097308;28;10012;-71
2023/02/04 09:21:13;;;;;;;;;15.00;12.00;;;;;;;;5082168;28;10153;-71
2023/02/04 09:23:40;;;;;;;;;9.00;9.00;;;;;;;;5095993;28;9835;-70
2023/02/04 09:26:08;;;;;;;;;13.00;13.00;;;;;;;;5093966;28;10736;-71
2023/02/04 09:28:36;;;;;;;;;18.00;15.25;;;;;;;;5096608;28;10126;-71
2023/02/04 09:31:05;;;;;;;;;17.25;14.75;;;;;;;;5096311;28;9790;-71
2023/02/04 09:33:32;;;;;;;;;16.25;13.50;;;;;;;;5097983;28;9861;-71
2023/02/04 09:36:02;;;;;;;;;15.00;11.00;;;;;;;;5094070;28;9950;-71
2023/02/04 09:38:29;;;;;;;;;15.25;14.00;;;;;;;;5078003;28;9932;-71
2023/02/04 09:40:58;;;;;;;;;12.00;11.00;;;;;;;;5097717;28;9895;-71
2023/02/04 09:43:28;;;;;;;;;11.75;11.75;;;;;;;;5095711;28;9786;-70
2023/02/04 09:45:56;;;;;;;;;14.50;13.00;;;;;;;;5077888;28;9782;-71
2023/02/04 09:48:25;;;;;;;;;12.75;12.75;;;;;;;;5095728;28;9964;-71
2023/02/04 09:51:03;;;;;;;;;13.75;13.75;;;;;;;;5107876;27;9815;-71
2023/02/04 09:53:31;;;;;;;;;9.00;9.00;;;;;;;;5096452;28;9891;-71
2023/02/04 09:55:58;;;;;;;;;10.00;10.00;;;;;;;;5093256;28;9688;-71
2023/02/04 09:58:29;;;;;;;;;10.25;10.00;;;;;;;;5072888;28;9814;-71
2023/02/04 10:00:59;;;;;;;;;18.25;15.50;;;;;;;;5076063;28;9764;-71
2023/02/04 10:03:27;;;;;;;;;16.00;14.75;;;;;;;;5076554;28;10729;-71
2023/02/04 10:05:54;;;;;;;;;15.00;15.00;;;;;;;;5110931;27;9846;-72
2023/02/04 10:08:29;;;;;;;;;15.50;14.25;;;;;;;;5076577;28;9666;-71
2023/02/04 10:10:57;;;;;;;;;14.75;14.75;;;;;;;;5095253;28;9811;-71
2023/02/04 10:13:30;;;;;;;;;16.25;16.25;;;;;;;;5092809;28;10398;-71
2023/02/04 10:15:58;;;;;;;;;14.50;14.50;;;;;;;;5088751;28;9754;-71
2023/02/04 10:18:30;;;;;;;;;9.50;9.50;;;;;;;;5092273;28;9802;-71
2023/02/04 10:21:06;;;;;;;;;10.75;10.75;;;;;;;;5093261;28;9752;-71
2023/02/04 10:23:35;;;;;;;;;14.50;12.75;;;;;;;;5094021;28;9620;-70
2023/02/04 10:26:04;;;;;;;;;14.25;14.25;;;;;;;;5094685;28;9788;-71
2023/02/04 10:28:35;;;;;;;;;16.75;12.50;;;;;;;;5094633;28;9693;-72
2023/02/04 10:31:03;;;;;;;;;14.50;10.50;;;;;;;;5075311;28;9552;-72
2023/02/04 10:33:31;;;;;;;;;18.75;16.50;;;;;;;;5098355;28;9775;-72
2023/02/04 10:35:59;;;;;;;;;13.75;13.75;;;;;;;;5093749;28;9771;-71
2023/02/04 10:38:26;;;;;;;;;16.25;14.00;;;;;;;;5093798;28;10564;-72
2023/02/04 10:41:03;;;;;;;;;17.00;12.75;;;;;;;;5092534;28;9832;-73
2023/02/04 10:43:30;;;;;;;;;25.00;23.75;;;;;;;;5091319;28;9670;-72
2023/02/04 10:46:01;;;;;;;;;8.50;8.25;;;;;;;;5075678;28;9930;-72
2023/02/04 10:48:30;;;;;;;;;13.50;12.00;;;;;;;;5096359;28;9411;-72
2023/02/04 10:50:58;;;;;;;;;19.50;16.00;;;;;;;;5097974;28;9527;-72
2023/02/04 10:56:16;;;;;;;;;23.50;23.50;;;;;;;;5097088;28;10002;-72
2023/02/04 10:58:44;;;;;;;;;18.50;12.75;;;;;;;;5100986;27;9851;-72
2023/02/04 11:01:13;;;;;;;;;17.00;14.75;;;;;;;;5098102;27;9489;-71
2023/02/04 11:03:41;;;;;;;;;26.00;22.50;;;;;;;;5101249;28;9682;-71
2023/02/04 11:06:13;;;;;;;;;19.00;16.50;;;;;;;;5099045;28;10026;-71
2023/02/04 11:08:41;;;;;;;;;24.50;18.25;;;;;;;;5097301;28;9677;-70
2023/02/04 11:11:15;;;;;;;;;12.75;12.00;;;;;;;;5097835;28;9833;-72
2023/02/04 11:13:45;;;;;;;;;19.75;15.00;;;;;;;;5098747;28;9599;-72
2023/02/04 11:16:24;;;;;;;;;19.00;19.00;;;;;;;;5099891;28;9592;-73
2023/02/04 11:18:57;;;;;;;;;22.50;21.00;;;;;;;;5098228;28;9680;-73
2023/02/04 11:21:28;;;;;;;;;18.75;18.50;;;;;;;;5093448;28;9980;-73
2023/02/04 11:24:07;;;;;;;;;18.00;18.00;;;;;;;;5080775;28;9605;-73
2023/02/04 11:26:37;;;;;;;;;17.00;15.50;;;;;;;;5093163;28;9813;-72
2023/02/04 11:29:29;;;;;;;;;18.00;15.50;;;;;;;;5096467;28;9787;-73
2023/02/04 11:32:00;;;;;;;;;11.75;11.00;;;;;;;;5096868;28;9564;-70
2023/02/04 11:34:50;;;;;;;;;12.75;10.00;;;;;;;;5090025;28;9539;-71
2023/02/04 11:37:36;;;;;;;;;11.00;11.00;;;;;;;;5106272;27;9506;-69
2023/02/04 11:40:17;;;;;;;;;18.00;15.25;;;;;;;;5079538;28;9519;-74
2023/02/04 11:42:46;;;;;;;;;15.50;15.50;;;;;;;;5096792;28;9616;-72
2023/02/04 11:45:16;;;;;;;;;11.00;9.67;;;;;;;;5078895;28;9532;-73
2023/02/04 11:47:44;;;;;;;;;11.33;11.33;;;;;;;;5097280;28;9254;-70
2023/02/04 11:50:18;;;;;;;;;11.00;11.00;;;;;;;;5097134;28;10118;-74
2023/02/04 11:52:45;;;;;;;;;11.67;9.00;;;;;;;;5109376;27;9455;-73
2023/02/04 11:55:13;;;;;;;;;14.00;14.00;;;;;;;;5096390;28;9276;-73
2023/02/04 11:57:41;;;;;;;;;12.00;11.33;;;;;;;;5096584;28;9262;-73
2023/02/04 12:00:17;;;;;;;;;15.33;11.33;;;;;;;;5097713;28;9226;-74
2023/02/04 12:02:48;;;;;;;;;10.67;8.67;;;;;;;;5094140;28;9184;-75
2023/02/04 12:05:16;;;;;;;;;12.00;12.00;;;;;;;;5094510;28;9079;-72
2023/02/04 12:07:44;;;;;;;;;16.00;16.00;;;;;;;;5095213;28;9283;-72
2023/02/04 12:10:15;;;;;;;;;19.67;18.00;;;;;;;;5095399;28;9419;-73
2023/02/04 12:12:44;;;;;;;;;12.33;12.33;;;;;;;;5074034;28;9326;-73
2023/02/04 12:15:22;;;;;;;;;11.00;11.00;;;;;;;;5093099;28;9247;-72
2023/02/04 12:18:02;;;;;;;;;12.67;12.00;;;;;;;;5096139;28;9274;-72
2023/02/04 12:20:29;;;;;;;;;10.00;8.67;;;;;;;;5080618;28;9228;-73
2023/02/04 12:22:57;;;;;;;;;16.33;16.33;;;;;;;;5091915;28;9401;-73
2023/02/04 12:25:25;;;;;;;;;16.00;11.33;;;;;;;;5095809;28;9359;-73
2023/02/04 12:27:54;;;;;;;;;17.25;16.75;;;;;;;;5094333;28;9400;-73
2023/02/04 12:30:24;;;;;;;;;20.50;18.25;;;;;;;;5092248;28;10344;-73
2023/02/04 12:32:51;;;;;;;;;15.67;15.33;;;;;;;;5077722;28;9456;-73
2023/02/04 12:35:19;;;;;;;;;10.00;10.00;;;;;;;;5096863;27;10247;-73
2023/02/04 12:37:49;;;;;;;;;14.00;11.67;;;;;;;;5096667;28;9330;-73
2023/02/04 12:40:18;;;;;;;;;15.67;12.67;;;;;;;;5096209;28;9196;-73
2023/02/04 12:42:46;;;;;;;;;10.33;10.33;;;;;;;;5082081;28;9309;-74
2023/02/04 12:45:15;;;;;;;;;11.33;10.00;;;;;;;;5097096;28;9461;-71
2023/02/04 12:47:44;;;;;;;;;11.33;10.67;;;;;;;;5096107;28;9152;-71
2023/02/04 12:50:13;;;;;;;;;8.67;8.67;;;;;;;;5096799;28;9059;-72
2023/02/04 12:52:40;;;;;;;;;8.33;8.33;;;;;;;;5099181;28;9740;-72
2023/02/04 12:55:09;;;;;;;;;10.00;10.00;;;;;;;;5096881;28;9134;-73
2023/02/04 12:57:36;;;;;;;;;5.50;5.50;;;;;;;;5080177;28;8993;-72
2023/02/04 13:00:06;;;;;;;;;3.75;3.75;;;;;;;;5094692;28;8837;-71
2023/02/04 13:02:33;;;;;;;;;5.00;5.00;;;;;;;;5095176;28;8818;-69
2023/02/04 13:05:02;;;;;;;;;3.33;3.33;;;;;;;;5098537;28;8937;-71
2023/02/04 13:07:29;;;;;;;;;5.00;4.50;;;;;;;;5095411;28;8923;-72
2023/02/04 13:09:57;;;;;;;;;7.33;4.67;;;;;;;;5093732;28;8922;-70
2023/02/04 13:12:24;;;;;;;;;7.75;7.75;;;;;;;;5095621;28;8907;-74
2023/02/04 13:14:52;;;;;;;;;5.75;5.75;;;;;;;;5092179;27;8830;-71
2023/02/04 13:17:19;;;;;;;;;5.00;5.00;;;;;;;;5077764;28;8878;-72
2023/02/04 13:19:47;;;;;;;;;5.25;5.25;;;;;;;;5079653;28;8818;-71
2023/02/04 13:22:16;;;;;;;;;8.00;4.50;;;;;;;;5092519;28;8883;-72
2023/02/04 13:24:43;;;;;;;;;3.50;2.00;;;;;;;;5096333;28;8865;-73
2023/02/04 13:27:11;;;;;;;;;2.75;2.75;;;;;;;;5079292;28;8883;-71
2023/02/04 13:29:38;;;;;;;;;2.75;2.75;;;;;;;;5098466;28;8834;-71
2023/02/04 13:32:06;;;;;;;;;4.50;3.00;;;;;;;;5097037;28;8801;-71
2023/02/04 13:34:33;;;;;;;;;4.75;3.00;;;;;;;;5108241;27;8865;-72
2023/02/04 13:37:01;;;;;;;;;2.75;2.75;;;;;;;;5096805;28;9667;-76
2023/02/04 13:39:30;;;;;;;;;3.75;3.75;;;;;;;;5094255;28;8846;-74
2023/02/04 13:41:57;;;;;;;;;2.00;2.00;;;;;;;;5095925;28;8846;-73
2023/02/04 13:44:25;;;;;;;;;1.00;1.00;;;;;;;;5097024;28;8833;-73
2023/02/04 13:46:52;;;;;;;;;2.00;2.00;;;;;;;;5096809;28;8837;-73
2023/02/04 13:49:20;;;;;;;;;2.00;2.00;;;;;;;;5111464;27;8849;-73
2023/02/04 13:51:47;;;;;;;;;4.00;4.00;;;;;;;;5077116;28;8849;-75
2023/02/04 13:54:15;;;;;;;;;1.00;1.00;;;;;;;;5097550;28;9796;-73
2023/02/04 13:56:44;;;;;;;;;3.50;3.50;;;;;;;;5093929;28;8976;-74
2023/02/04 13:59:11;;;;;;;;;12.33;10.00;;;;;;;;5078091;28;8861;-72
2023/02/04 14:01:39;;;;;;;;;6.50;6.25;;;;;;;;5095193;27;8942;-74
2023/02/04 14:04:06;;;;;;;;;8.75;4.50;;;;;;;;5097241;28;8918;-73
2023/02/04 14:06:37;;;;;;;;;5.00;3.25;;;;;;;;5097362;28;8837;-72
2023/02/04 14:09:05;;;;;;;;;1.00;1.00;;;;;;;;5097448;28;8845;-72
2023/02/04 14:11:32;;;;;;;;;2.25;2.25;;;;;;;;5095436;28;8858;-71
2023/02/04 14:14:01;;;;;;;;;3.00;3.00;;;;;;;;5094175;28;8982;-71
2023/02/04 14:16:28;;;;;;;;;2.00;2.00;;;;;;;;5091505;28;8840;-71
2023/02/04 14:18:56;;;;;;;;;3.00;2.75;;;;;;;;5095334;28;8822;-71
2023/02/04 14:21:23;;;;;;;;;5.25;5.25;;;;;;;;5093975;28;8818;-71
2023/02/04 14:23:51;;;;;;;;;9.00;6.00;;;;;;;;5098139;28;8852;-71
2023/02/04 14:26:18;;;;;;;;;3.75;3.75;;;;;;;;5098969;28;8848;-71
2023/02/04 14:28:45;;;;;;;;;5.50;5.50;;;;;;;;5083773;28;8968;-71
2023/02/04 14:31:14;;;;;;;;;5.50;5.50;;;;;;;;5099431;28;8829;-71
2023/02/04 14:33:41;;;;;;;;;4.00;2.50;;;;;;;;5101505;28;8830;-71
2023/02/04 14:36:09;;;;;;;;;2.50;2.50;;;;;;;;5098473;28;8849;-71
2023/02/04 14:38:38;;;;;;;;;3.50;1.00;;;;;;;;5081981;28;8849;-71
2023/02/04 14:41:05;;;;;;;;;4.00;4.00;;;;;;;;5097615;28;8837;-71
2023/02/04 14:43:36;;;;;;;;;4.00;4.00;;;;;;;;5101529;28;8833;-71
2023/02/04 14:46:04;;;;;;;;;2.25;1.50;;;;;;;;5094760;28;8831;-72
2023/02/04 14:48:34;;;;;;;;;3.75;3.00;;;;;;;;5093589;28;8924;-72